Time;durP1;ratioP1;P1;durP2;ratioP2;P2;SDS_P1;SDS_P2;PMS_P1;PMS_P2;Temp;Humidity;BMP_temperature;BMP_pressure;BME280_temperature;BME280_humidity;BME280_pressure;Samples;Min_cycle;Max_cycle;Signal;HPM_P1;HPM_P2
2023/05/05 00:01:58;;;;;;;;;1.00;1.00;;;;;18.70;52.83;100919.94;4954236;28;45470;-58
2023/05/05 00:04:24;;;;;;;;;2.00;2.00;;;;;18.72;52.68;100926.00;4954451;28;45497;-57
2023/05/05 00:06:49;;;;;;;;;1.33;1.33;;;;;18.72;52.88;100924.19;4957822;28;45577;-55
2023/05/05 00:09:15;;;;;;;;;2.00;0.00;;;;;18.70;52.47;100912.78;4945358;28;45581;-56
2023/05/05 00:11:40;;;;;;;;;0.00;0.00;;;;;18.74;53.10;100913.44;4956356;28;46085;-56
2023/05/05 00:14:05;;;;;;;;;2.00;1.00;;;;;18.71;52.82;100913.66;4956214;28;45546;-56
2023/05/05 00:16:31;;;;;;;;;1.00;1.00;;;;;18.69;52.93;100905.75;4958743;28;45474;-57
2023/05/05 00:18:57;;;;;;;;;1.00;1.00;;;;;18.75;52.49;100902.72;4958663;28;45572;-57
2023/05/05 00:21:22;;;;;;;;;0.00;0.00;;;;;18.79;52.77;100913.19;4958455;28;45355;-58
2023/05/05 00:23:47;;;;;;;;;1.00;1.00;;;;;18.75;52.66;100905.41;4957010;28;55537;-58
2023/05/05 00:26:13;;;;;;;;;0.00;0.00;;;;;18.80;52.73;100913.06;4949155;28;45328;-57
2023/05/05 00:28:38;;;;;;;;;0.00;0.00;;;;;18.75;52.82;100905.41;4956908;28;45593;-57
2023/05/05 00:31:03;;;;;;;;;1.00;1.00;;;;;18.81;52.92;100908.63;4958166;28;51754;-56
2023/05/05 00:33:29;;;;;;;;;0.33;0.33;;;;;18.80;52.66;100901.56;4958426;28;45384;-55
2023/05/05 00:35:54;;;;;;;;;1.00;1.00;;;;;18.68;53.31;100900.53;4945913;28;45473;-56
2023/05/05 00:38:19;;;;;;;;;2.00;1.00;;;;;18.62;53.04;100887.56;4958481;28;45761;-55
2023/05/05 00:40:45;;;;;;;;;1.67;1.67;;;;;18.55;53.42;100882.66;4957212;28;56238;-57
2023/05/05 00:43:11;;;;;;;;;1.67;1.00;;;;;18.52;53.40;100880.19;4957802;28;45391;-56
2023/05/05 00:45:41;;;;;;;;;0.67;0.67;;;;;18.56;53.44;100886.16;4957391;28;45873;-56
2023/05/05 00:48:07;;;;;;;;;2.33;2.00;;;;;18.55;53.54;100900.44;4958277;28;45320;-58
2023/05/05 00:50:33;;;;;;;;;1.00;0.00;;;;;18.52;53.72;100903.31;4958163;28;45521;-57
2023/05/05 00:53:05;;;;;;;;;0.67;0.67;;;;;18.46;53.39;100901.91;4958127;28;45422;-57
2023/05/05 00:55:32;;;;;;;;;2.00;2.00;;;;;18.50;53.80;100916.72;4956036;28;45448;-58
2023/05/05 00:57:59;;;;;;;;;1.00;1.00;;;;;18.49;53.82;100914.16;4950446;28;45572;-56
2023/05/05 01:00:24;;;;;;;;;1.00;1.00;;;;;18.40;54.07;100910.25;4957591;28;46931;-57
2023/05/05 01:02:51;;;;;;;;;1.00;1.00;;;;;18.39;54.42;100905.91;4953084;28;45392;-55
2023/05/05 01:05:21;;;;;;;;;0.00;0.00;;;;;18.32;54.54;100907.22;4955918;28;45401;-53
2023/05/05 01:08:04;;;;;;;;;1.00;1.00;;;;;18.29;55.21;100908.28;4957017;28;45455;-56
2023/05/05 01:10:38;;;;;;;;;1.00;1.00;;;;;18.21;55.21;100915.88;4956869;28;45556;-58
2023/05/05 01:13:22;;;;;;;;;0.67;0.67;;;;;18.15;55.81;100910.09;4957983;28;45541;-56
2023/05/05 01:16:10;;;;;;;;;2.00;1.00;;;;;18.17;55.37;100910.88;4950235;28;45446;-56
2023/05/05 01:19:29;;;;;;;;;1.67;0.67;;;;;18.20;55.69;100905.34;4958172;28;45524;-55
2023/05/05 01:21:59;;;;;;;;;1.00;1.00;;;;;18.25;55.47;100906.75;4950361;28;45468;-57
2023/05/05 01:24:48;;;;;;;;;0.67;0.67;;;;;18.27;55.97;100898.69;4952545;28;45487;-55
2023/05/05 01:27:26;;;;;;;;;1.00;1.00;;;;;18.18;55.76;100886.78;4952278;28;45430;-58
2023/05/05 01:30:07;;;;;;;;;3.00;2.00;;;;;18.22;55.99;100890.13;4957212;28;45432;-58
2023/05/05 01:32:37;;;;;;;;;2.00;2.00;;;;;18.23;55.91;100889.19;4956575;28;45390;-58
2023/05/05 01:35:17;;;;;;;;;1.00;1.00;;;;;18.17;56.22;100881.59;4948528;28;45702;-55
2023/05/05 01:37:54;;;;;;;;;1.00;1.00;;;;;18.10;56.13;100870.44;4957826;28;45327;-56
2023/05/05 01:40:25;;;;;;;;;1.00;1.00;;;;;18.17;56.41;100878.91;4957552;28;45393;-55
2023/05/05 01:42:53;;;;;;;;;3.00;2.00;;;;;18.14;56.41;100868.47;4957042;28;45987;-58
2023/05/05 01:45:20;;;;;;;;;1.00;1.00;;;;;18.19;56.42;100869.00;4953600;28;45455;-54
2023/05/05 01:47:46;;;;;;;;;0.00;0.00;;;;;18.16;56.29;100863.88;4956440;28;45546;-57
2023/05/05 01:50:13;;;;;;;;;1.33;0.00;;;;;18.16;56.41;100867.41;4957385;28;45644;-55
2023/05/05 01:52:41;;;;;;;;;2.00;2.00;;;;;18.22;56.33;100877.69;4956998;28;45423;-56
2023/05/05 01:55:08;;;;;;;;;1.00;1.00;;;;;18.18;56.61;100876.13;4952061;28;45551;-56
2023/05/05 01:57:35;;;;;;;;;1.33;1.00;;;;;18.14;57.01;100876.44;4957296;28;45503;-56
2023/05/05 02:00:02;;;;;;;;;2.00;2.00;;;;;18.10;56.84;100878.44;4957296;28;45594;-55
2023/05/05 02:02:31;;;;;;;;;1.00;1.00;;;;;18.12;56.61;100879.19;4954170;28;46053;-57
2023/05/05 02:04:58;;;;;;;;;2.00;0.67;;;;;18.16;56.66;100875.41;4950831;28;45397;-54
2023/05/05 02:07:25;;;;;;;;;2.00;2.00;;;;;18.08;56.77;100872.34;4957402;28;45391;-55
2023/05/05 02:09:51;;;;;;;;;1.67;1.67;;;;;18.13;56.70;100875.56;4957184;28;45382;-57
2023/05/05 02:12:19;;;;;;;;;1.00;1.00;;;;;18.16;56.73;100872.75;4956029;28;46268;-55
2023/05/05 02:14:46;;;;;;;;;2.00;1.00;;;;;18.17;56.49;100866.47;4953676;28;45474;-57
2023/05/05 02:17:14;;;;;;;;;1.00;1.00;;;;;18.20;56.41;100870.72;4957074;28;45506;-55
2023/05/05 02:19:42;;;;;;;;;1.67;1.67;;;;;18.21;56.65;100883.94;4956564;28;45336;-55
2023/05/05 02:22:08;;;;;;;;;2.00;2.00;;;;;18.21;56.49;100889.25;4955548;28;45528;-56
2023/05/05 02:24:34;;;;;;;;;1.33;1.33;;;;;18.24;56.26;100891.75;4952870;28;45490;-51
2023/05/05 02:27:02;;;;;;;;;3.00;2.00;;;;;18.22;56.45;100898.97;4951897;28;45427;-58
2023/05/05 02:29:34;;;;;;;;;1.00;1.00;;;;;18.19;56.58;100899.16;4953157;28;45483;-58
2023/05/05 02:32:15;;;;;;;;;2.00;2.00;;;;;18.16;56.75;100901.16;4956797;28;45583;-53
2023/05/05 02:34:43;;;;;;;;;1.00;1.00;;;;;18.15;56.72;100902.09;4940575;28;45446;-57
2023/05/05 02:37:11;;;;;;;;;2.00;2.00;;;;;18.17;56.43;100905.53;4951319;28;45428;-57
2023/05/05 02:39:57;;;;;;;;;1.67;1.67;;;;;18.17;56.69;100903.72;4956832;28;45436;-56
2023/05/05 02:42:26;;;;;;;;;3.00;2.00;;;;;18.17;56.46;100895.75;4956409;28;46026;-57
2023/05/05 02:44:56;;;;;;;;;2.00;2.00;;;;;18.17;56.68;100892.22;4949570;28;45854;-54
2023/05/05 02:47:26;;;;;;;;;4.00;4.00;;;;;18.16;56.44;100896.69;4951342;28;45438;-55
2023/05/05 02:49:52;;;;;;;;;3.00;3.00;;;;;18.12;56.55;100891.66;4956625;28;45841;-58
2023/05/05 02:52:17;;;;;;;;;3.33;2.00;;;;;18.14;56.44;100898.59;4955824;28;45461;-55
2023/05/05 02:54:42;;;;;;;;;4.33;4.33;;;;;18.17;56.45;100897.56;4956551;28;45370;-55
2023/05/05 02:57:15;;;;;;;;;5.00;5.00;;;;;18.14;56.59;100906.59;4955878;28;45514;-54
2023/05/05 02:59:51;;;;;;;;;4.00;3.00;;;;;18.10;56.68;100891.75;4954576;28;45368;-55
2023/05/05 03:02:26;;;;;;;;;3.00;3.00;;;;;18.13;56.21;100890.69;4953095;28;46180;-56
2023/05/05 03:05:03;;;;;;;;;3.00;3.00;;;;;18.16;56.60;100898.47;4956176;28;45416;-56
2023/05/05 03:07:59;;;;;;;;;3.33;3.33;;;;;18.12;56.74;100889.84;4956596;28;45474;-56
2023/05/05 03:10:33;;;;;;;;;1.67;1.67;;;;;18.08;56.97;100880.31;4954208;28;45476;-56
2023/05/05 03:13:00;;;;;;;;;2.00;2.00;;;;;18.09;56.67;100882.91;4952331;28;48385;-53
2023/05/05 03:15:40;;;;;;;;;3.67;3.00;;;;;18.08;56.84;100867.00;4956087;28;45390;-55
2023/05/05 03:18:07;;;;;;;;;1.00;1.00;;;;;18.08;56.81;100865.22;4954936;28;45447;-56
2023/05/05 03:20:33;;;;;;;;;4.00;3.00;;;;;18.08;56.84;100867.91;4955570;28;45502;-56
2023/05/05 03:23:00;;;;;;;;;3.00;3.00;;;;;18.08;56.83;100872.34;4951358;28;46493;-58
2023/05/05 03:25:46;;;;;;;;;2.00;2.00;;;;;18.03;57.08;100869.97;4966333;28;45575;-57
2023/05/05 03:28:13;;;;;;;;;1.67;1.67;;;;;18.03;57.02;100879.78;4955397;28;45457;-55
2023/05/05 03:30:38;;;;;;;;;3.67;3.00;;;;;18.02;57.38;100881.56;4954197;28;45655;-52
2023/05/05 03:33:04;;;;;;;;;3.00;3.00;;;;;18.03;57.12;100895.75;4954303;28;46408;-58
2023/05/05 03:35:29;;;;;;;;;2.00;2.00;;;;;18.03;57.02;100893.94;4953496;28;45490;-57
2023/05/05 03:37:55;;;;;;;;;1.00;1.00;;;;;18.03;57.34;100893.94;4955943;28;45567;-55
2023/05/05 03:40:22;;;;;;;;;1.00;1.00;;;;;18.00;57.17;100898.56;4955357;28;45608;-56
2023/05/05 03:42:47;;;;;;;;;3.67;3.00;;;;;17.99;57.33;100910.19;4953931;28;46164;-57
2023/05/05 03:45:12;;;;;;;;;2.33;2.33;;;;;17.98;57.53;100916.47;4952896;28;47253;-57
2023/05/05 03:47:38;;;;;;;;;2.00;2.00;;;;;17.95;57.29;100919.31;4953139;28;45494;-57
2023/05/05 03:50:03;;;;;;;;;2.00;2.00;;;;;17.88;57.85;100919.66;4954522;28;64863;-58
2023/05/05 03:52:29;;;;;;;;;4.00;3.00;;;;;17.88;57.66;100922.34;4952364;28;45479;-58
2023/05/05 03:54:55;;;;;;;;;3.33;2.00;;;;;17.83;57.77;100913.78;4956544;28;45569;-56
2023/05/05 03:57:20;;;;;;;;;2.00;2.00;;;;;17.87;58.01;100923.28;4956955;28;45448;-56
2023/05/05 03:59:45;;;;;;;;;2.00;2.00;;;;;17.89;57.86;100920.53;4955806;28;46395;-56
2023/05/05 04:02:10;;;;;;;;;1.67;1.33;;;;;17.84;57.71;100920.81;4954165;28;46024;-56
2023/05/05 04:04:36;;;;;;;;;2.67;2.67;;;;;17.83;57.83;100923.56;4954985;28;45490;-52
2023/05/05 04:07:01;;;;;;;;;3.00;3.00;;;;;17.81;58.09;100923.66;4958336;28;45545;-55
2023/05/05 04:09:26;;;;;;;;;2.00;2.00;;;;;17.80;58.00;100921.94;4958226;28;45435;-56
2023/05/05 04:11:52;;;;;;;;;3.00;3.00;;;;;17.75;58.40;100931.13;4956966;28;55184;-56
2023/05/05 04:14:17;;;;;;;;;2.00;2.00;;;;;17.76;58.39;100936.34;4956614;28;45528;-58
2023/05/05 04:16:42;;;;;;;;;3.00;1.33;;;;;17.76;58.23;100935.47;4957007;28;45481;-57
2023/05/05 04:19:08;;;;;;;;;2.00;2.00;;;;;17.75;58.37;100941.75;4956640;28;48226;-57
2023/05/05 04:21:34;;;;;;;;;4.33;2.00;;;;;17.76;58.30;100951.44;4953954;28;45527;-58
2023/05/05 04:23:59;;;;;;;;;2.00;2.00;;;;;17.72;58.58;100940.13;4955226;28;45370;-58
2023/05/05 04:26:24;;;;;;;;;1.00;1.00;;;;;17.65;59.09;100944.97;4958007;28;45385;-56
2023/05/05 04:28:50;;;;;;;;;1.33;1.33;;;;;17.65;58.67;100944.97;4957000;28;45534;-58
2023/05/05 04:31:15;;;;;;;;;2.00;2.00;;;;;17.71;58.59;100945.56;4956740;28;51216;-56
2023/05/05 04:33:40;;;;;;;;;3.00;3.00;;;;;17.67;59.02;100943.06;4944650;28;45401;-53
2023/05/05 04:36:06;;;;;;;;;2.00;2.00;;;;;17.74;59.29;100953.38;4958326;28;45551;-58
2023/05/05 04:38:31;;;;;;;;;3.67;3.00;;;;;17.75;59.49;100955.06;4958551;28;45430;-57
2023/05/05 04:40:57;;;;;;;;;2.00;2.00;;;;;17.71;59.40;100954.41;4958128;28;55202;-55
2023/05/05 04:43:22;;;;;;;;;6.00;3.00;;;;;17.70;59.58;100950.00;4947110;28;45694;-56
2023/05/05 04:45:52;;;;;;;;;3.00;2.00;;;;;17.71;59.88;100956.22;4954175;28;45812;-54
2023/05/05 04:48:19;;;;;;;;;3.00;3.00;;;;;17.69;59.89;100958.94;4953307;28;45383;-58
2023/05/05 04:50:45;;;;;;;;;3.33;2.33;;;;;17.71;59.85;100957.06;4952677;28;45360;-53
2023/05/05 04:53:10;;;;;;;;;5.00;3.67;;;;;17.68;59.91;100965.22;4954832;28;45364;-53
2023/05/05 04:55:35;;;;;;;;;2.67;2.67;;;;;17.64;60.34;100958.34;4958515;28;45388;-57
2023/05/05 04:58:01;;;;;;;;;3.00;3.00;;;;;17.63;60.86;100968.16;4958228;28;45669;-51
2023/05/05 05:00:26;;;;;;;;;3.33;2.00;;;;;17.64;60.65;100963.69;4957999;28;46265;-56
2023/05/05 05:02:52;;;;;;;;;3.67;3.67;;;;;17.59;60.92;100961.28;4955141;28;45365;-57
2023/05/05 05:05:17;;;;;;;;;1.67;1.67;;;;;17.54;60.94;100943.88;4957021;28;45405;-56
2023/05/05 05:07:43;;;;;;;;;3.00;3.00;;;;;17.61;60.96;100964.72;4957280;28;45569;-57
2023/05/05 05:10:08;;;;;;;;;2.67;2.67;;;;;17.62;61.20;100968.22;4957895;28;45961;-57
2023/05/05 05:12:34;;;;;;;;;1.33;1.33;;;;;17.58;61.59;100967.56;4947026;28;45556;-57
2023/05/05 05:14:59;;;;;;;;;8.00;8.00;;;;;17.60;61.59;100965.66;4952496;28;45427;-57
2023/05/05 05:17:25;;;;;;;;;7.00;7.00;;;;;17.60;62.12;100962.16;4957466;28;45552;-57
2023/05/05 05:19:51;;;;;;;;;2.67;2.33;;;;;17.58;62.30;100953.41;4955693;28;46089;-57
2023/05/05 05:22:16;;;;;;;;;3.00;2.00;;;;;17.56;62.20;100958.81;4956251;28;45463;-56
2023/05/05 05:24:42;;;;;;;;;3.00;2.33;;;;;17.57;62.16;100965.84;4957187;28;45471;-55
2023/05/05 05:27:08;;;;;;;;;2.00;2.00;;;;;17.54;62.43;100973.13;4956674;28;45455;-54
2023/05/05 05:29:33;;;;;;;;;5.67;3.00;;;;;17.51;62.40;100974.16;4956588;28;45501;-55
2023/05/05 05:31:59;;;;;;;;;2.00;2.00;;;;;17.53;62.47;100966.13;4956072;28;45439;-55
2023/05/05 05:34:24;;;;;;;;;2.67;2.67;;;;;17.51;63.00;100979.50;4956602;28;45852;-56
2023/05/05 05:36:50;;;;;;;;;2.00;2.00;;;;;17.49;62.70;100976.09;4955843;28;45405;-58
2023/05/05 05:39:15;;;;;;;;;3.00;3.00;;;;;17.43;62.44;100977.28;4954321;28;46084;-57
2023/05/05 05:41:40;;;;;;;;;2.00;2.00;;;;;17.47;62.65;100979.78;4952598;28;45447;-56
2023/05/05 05:44:06;;;;;;;;;1.00;1.00;;;;;17.46;63.05;100973.59;4952702;28;46031;-57
2023/05/05 05:46:31;;;;;;;;;2.00;2.00;;;;;17.41;63.11;100975.69;4953239;28;45457;-53
2023/05/05 05:48:57;;;;;;;;;2.00;2.00;;;;;17.40;62.84;100968.63;4947321;28;46193;-55
2023/05/05 05:51:22;;;;;;;;;5.00;2.67;;;;;17.36;62.79;100973.28;4956432;28;45434;-63
2023/05/05 05:53:47;;;;;;;;;2.00;2.00;;;;;17.41;63.03;100986.31;4955795;28;47247;-60
2023/05/05 05:56:13;;;;;;;;;2.00;2.00;;;;;17.42;63.09;100980.03;4953748;28;45571;-60
2023/05/05 05:58:38;;;;;;;;;2.00;2.00;;;;;17.37;63.25;100980.28;4954069;28;45569;-59
2023/05/05 06:01:04;;;;;;;;;2.67;2.00;;;;;17.42;63.44;100986.22;4942074;28;45367;-59
2023/05/05 06:03:29;;;;;;;;;2.00;2.00;;;;;17.45;63.75;100999.31;4954210;28;45578;-59
2023/05/05 06:05:55;;;;;;;;;3.00;3.00;;;;;17.43;63.98;101001.22;4947732;28;45514;-59
2023/05/05 06:08:20;;;;;;;;;2.00;2.00;;;;;17.42;63.52;100998.66;4952108;28;45505;-61
2023/05/05 06:10:47;;;;;;;;;2.00;2.00;;;;;17.41;63.43;101005.78;4957013;28;45498;-59
2023/05/05 06:13:12;;;;;;;;;2.00;2.00;;;;;17.38;63.57;101013.94;4963671;28;45551;-59
2023/05/05 06:15:39;;;;;;;;;2.00;2.00;;;;;17.37;63.61;101009.53;4956548;28;45328;-59
2023/05/05 06:18:05;;;;;;;;;4.33;3.33;;;;;17.41;63.77;101010.25;4956708;28;46005;-59
2023/05/05 06:20:30;;;;;;;;;3.33;3.00;;;;;17.37;63.21;101020.19;4971929;28;45464;-59
2023/05/05 06:22:55;;;;;;;;;2.00;2.00;;;;;17.31;63.80;101014.38;4950471;28;45351;-59
2023/05/05 06:25:21;;;;;;;;;2.00;2.00;;;;;17.27;64.03;101011.00;4948888;28;45660;-59
2023/05/05 06:27:47;;;;;;;;;3.00;3.00;;;;;17.23;64.40;101006.81;4953222;28;46705;-59
2023/05/05 06:30:24;;;;;;;;;2.67;2.00;;;;;17.24;64.38;101011.19;4954422;28;45641;-59
2023/05/05 06:32:53;;;;;;;;;3.00;3.00;;;;;17.23;64.46;101004.16;4950294;28;45501;-59
2023/05/05 06:35:19;;;;;;;;;4.00;4.00;;;;;17.25;64.93;101012.91;4956467;28;45421;-59
2023/05/05 06:37:44;;;;;;;;;3.00;1.67;;;;;17.24;65.01;101008.53;4953200;28;46052;-59
2023/05/05 06:40:10;;;;;;;;;2.00;2.00;;;;;17.25;65.04;101001.41;4955271;28;45372;-59
2023/05/05 06:42:36;;;;;;;;;4.00;3.00;;;;;17.25;65.01;100993.44;4956509;28;45360;-59
2023/05/05 06:45:01;;;;;;;;;3.00;3.00;;;;;17.20;65.09;100986.59;4956293;28;45593;-59
2023/05/05 06:47:26;;;;;;;;;5.00;4.00;;;;;17.21;65.12;100974.16;4955260;28;45482;-59
2023/05/05 06:49:52;;;;;;;;;3.00;3.00;;;;;17.19;65.13;100976.91;4955264;28;52351;-59
2023/05/05 06:52:17;;;;;;;;;5.00;3.67;;;;;17.17;65.06;100972.63;4955990;28;45589;-59
2023/05/05 06:54:43;;;;;;;;;3.00;3.00;;;;;17.19;65.46;100976.91;4956456;28;45419;-58
2023/05/05 06:57:08;;;;;;;;;3.00;3.00;;;;;17.20;65.18;100973.28;4966624;28;45932;-59
2023/05/05 06:59:34;;;;;;;;;2.00;2.00;;;;;17.23;64.90;100985.56;4957414;28;45667;-59
2023/05/05 07:01:59;;;;;;;;;4.00;4.00;;;;;17.26;64.85;100995.16;4952485;28;45602;-59
2023/05/05 07:04:25;;;;;;;;;4.00;3.00;;;;;17.21;65.06;100998.91;4953888;28;58070;-58
2023/05/05 07:06:50;;;;;;;;;1.00;1.00;;;;;17.17;64.57;100996.53;4955779;28;46246;-58
2023/05/05 07:09:17;;;;;;;;;3.00;3.00;;;;;17.19;64.90;101002.59;4956436;28;45477;-58
2023/05/05 07:11:42;;;;;;;;;4.00;2.67;;;;;17.15;64.72;101007.25;4954598;28;45531;-58
2023/05/05 07:14:08;;;;;;;;;0.00;0.00;;;;;17.15;64.67;101015.22;4955891;28;45373;-58
2023/05/05 07:16:33;;;;;;;;;2.00;2.00;;;;;17.15;65.07;101009.06;4955884;28;46031;-58
2023/05/05 07:18:59;;;;;;;;;3.67;3.67;;;;;17.13;64.99;101016.25;4955454;28;45417;-58
2023/05/05 07:21:25;;;;;;;;;2.00;2.00;;;;;17.20;65.31;101029.13;4955587;28;45325;-58
2023/05/05 07:23:50;;;;;;;;;2.33;2.33;;;;;17.21;65.08;101022.00;4955499;28;45531;-58
2023/05/05 07:26:15;;;;;;;;;1.00;1.00;;;;;17.22;65.24;101016.59;4955473;28;46123;-59
2023/05/05 07:28:41;;;;;;;;;4.00;2.67;;;;;17.23;64.85;101013.00;4955570;28;45413;-58
2023/05/05 07:31:07;;;;;;;;;1.33;1.33;;;;;17.27;65.04;101008.34;4958258;28;45443;-58
2023/05/05 07:33:32;;;;;;;;;2.33;2.33;;;;;17.32;64.80;101011.59;4959121;28;45494;-58
2023/05/05 07:35:57;;;;;;;;;2.33;2.33;;;;;17.34;65.09;100995.56;4958882;28;47057;-58
2023/05/05 07:38:24;;;;;;;;;2.00;2.00;;;;;17.35;65.12;101011.44;4958833;28;50377;-58
2023/05/05 07:40:49;;;;;;;;;3.00;3.00;;;;;17.35;64.70;101018.56;4958936;28;45399;-58
2023/05/05 07:43:15;;;;;;;;;6.00;6.00;;;;;17.34;64.92;101004.41;4959015;28;45489;-59
2023/05/05 07:45:40;;;;;;;;;4.00;4.00;;;;;17.35;65.25;100995.47;4958631;28;46137;-58
2023/05/05 07:48:05;;;;;;;;;3.00;3.00;;;;;17.33;65.20;100976.13;4950363;28;45718;-58
2023/05/05 07:50:31;;;;;;;;;3.33;3.33;;;;;17.34;65.24;100985.78;4959344;28;45490;-58
2023/05/05 07:52:56;;;;;;;;;2.00;2.00;;;;;17.36;65.11;101007.84;4958753;28;45447;-58
2023/05/05 07:55:22;;;;;;;;;4.00;4.00;;;;;17.37;65.11;100998.06;4954399;28;45626;-58
2023/05/05 07:57:48;;;;;;;;;4.00;4.00;;;;;17.37;65.12;101001.56;4947278;28;57044;-61
2023/05/05 08:00:14;;;;;;;;;4.00;4.00;;;;;17.38;65.21;101013.94;4956090;28;45415;-57
2023/05/05 08:02:40;;;;;;;;;4.00;4.00;;;;;17.39;65.34;101028.09;4958013;28;45371;-55
2023/05/05 08:05:06;;;;;;;;;4.00;4.00;;;;;17.43;64.84;101033.13;4958075;28;46005;-60
2023/05/05 08:07:31;;;;;;;;;4.67;2.00;;;;;17.45;65.32;101033.88;4958811;28;45475;-60
2023/05/05 08:09:56;;;;;;;;;4.00;4.00;;;;;17.47;65.32;101040.94;4956439;28;45486;-63
2023/05/05 08:12:22;;;;;;;;;2.67;2.67;;;;;17.47;65.42;101047.13;4950659;28;45845;-62
2023/05/05 08:14:47;;;;;;;;;3.00;3.00;;;;;17.46;65.66;101050.69;4955941;28;47589;-63
2023/05/05 08:17:12;;;;;;;;;4.00;4.00;;;;;17.44;65.50;101055.28;4942837;28;45623;-59
2023/05/05 08:19:37;;;;;;;;;5.33;4.00;;;;;17.52;65.44;101057.50;4952398;28;46318;-62
2023/05/05 08:22:03;;;;;;;;;3.67;3.67;;;;;17.51;64.89;101051.31;4948536;28;45609;-62
2023/05/05 08:24:28;;;;;;;;;7.00;7.00;;;;;17.56;64.33;101059.03;4946614;28;46060;-63
2023/05/05 08:26:54;;;;;;;;;7.00;5.00;;;;;17.58;65.12;101043.84;4957936;28;45398;-63
2023/05/05 08:29:20;;;;;;;;;5.67;5.67;;;;;17.59;64.62;101045.53;4958007;28;45501;-64
2023/05/05 08:31:45;;;;;;;;;4.00;3.00;;;;;17.60;64.02;101045.47;4953601;28;45421;-63
2023/05/05 08:34:10;;;;;;;;;4.67;4.67;;;;;17.58;64.29;101036.72;4957487;28;45519;-62
2023/05/05 08:36:35;;;;;;;;;4.00;4.00;;;;;17.57;64.45;101036.78;4958111;28;45399;-61
2023/05/05 08:39:01;;;;;;;;;4.67;4.67;;;;;17.55;64.33;101039.56;4957296;28;54370;-60
2023/05/05 08:41:27;;;;;;;;;3.33;3.33;;;;;17.53;63.41;101035.25;4954017;28;45430;-59
2023/05/05 08:43:52;;;;;;;;;3.00;3.00;;;;;17.51;63.42;101038.00;4951624;28;45478;-57
2023/05/05 08:46:18;;;;;;;;;4.33;4.33;;;;;17.55;63.27;101046.69;4956694;28;45546;-58
2023/05/05 08:48:44;;;;;;;;;4.33;4.33;;;;;17.55;63.32;101038.69;4955864;28;45463;-59
2023/05/05 08:51:19;;;;;;;;;2.67;2.67;;;;;17.51;62.94;101031.84;4955475;28;45513;-59
2023/05/05 08:53:57;;;;;;;;;1.67;1.67;;;;;17.53;63.26;101025.47;4947652;28;45521;-59
2023/05/05 08:56:28;;;;;;;;;5.33;3.00;;;;;17.63;63.19;101037.31;4949918;28;45506;-55
2023/05/05 08:58:55;;;;;;;;;8.00;8.00;;;;;17.66;62.82;101041.59;4957745;28;45372;-58
2023/05/05 09:01:20;;;;;;;;;2.00;2.00;;;;;17.64;62.25;101035.50;4945865;28;45447;-58
2023/05/05 09:03:46;;;;;;;;;3.67;2.67;;;;;17.57;60.99;101032.34;4946508;28;46211;-60
2023/05/05 09:06:12;;;;;;;;;2.00;2.00;;;;;17.55;61.43;101041.38;4956500;28;45483;-59
2023/05/05 09:08:37;;;;;;;;;1.00;1.00;;;;;17.57;61.06;101045.66;4957134;28;45488;-58
2023/05/05 09:11:03;;;;;;;;;1.00;1.00;;;;;17.57;60.93;101037.66;4956577;28;45654;-58
2023/05/05 09:13:30;;;;;;;;;2.00;2.00;;;;;17.58;61.13;101051.81;4952405;28;45577;-58
2023/05/05 09:15:55;;;;;;;;;3.00;3.00;;;;;17.59;60.56;101045.53;4952218;28;45588;-59
2023/05/05 09:18:21;;;;;;;;;1.00;1.00;;;;;17.62;60.28;101040.03;4955414;28;45388;-58
2023/05/05 09:20:46;;;;;;;;;1.67;1.67;;;;;17.61;59.51;101038.34;4957228;28;45702;-58
2023/05/05 09:23:16;;;;;;;;;0.00;0.00;;;;;17.63;59.74;101047.09;4956930;28;45412;-58
2023/05/05 09:25:44;;;;;;;;;6.33;6.33;;;;;17.67;59.92;101043.28;4956788;28;45435;-58
2023/05/05 09:28:16;;;;;;;;;5.00;5.00;;;;;17.65;59.72;101026.56;4957219;28;45529;-58
2023/05/05 09:30:45;;;;;;;;;0.00;0.00;;;;;17.72;59.06;101035.91;4956133;28;45429;-59
2023/05/05 09:33:11;;;;;;;;;3.00;3.00;;;;;17.71;59.38;101028.88;4947930;28;45552;-59
2023/05/05 09:35:54;;;;;;;;;1.33;1.33;;;;;17.69;59.30;101037.91;4952496;28;45515;-59
2023/05/05 09:38:21;;;;;;;;;2.00;1.00;;;;;17.67;59.07;101036.16;4956651;28;45588;-59
2023/05/05 09:40:50;;;;;;;;;1.33;1.33;;;;;17.61;58.84;101031.22;4955908;28;45482;-58
2023/05/05 09:43:17;;;;;;;;;1.00;1.00;;;;;17.72;58.89;101035.06;4956543;28;45428;-59
2023/05/05 09:45:42;;;;;;;;;1.00;1.00;;;;;17.77;58.86;101030.34;4956941;28;45530;-60
2023/05/05 09:48:28;;;;;;;;;1.67;1.67;;;;;17.76;58.18;101026.81;4956654;28;45710;-59
2023/05/05 09:50:55;;;;;;;;;1.00;1.00;;;;;17.80;58.12;101019.53;4950423;28;45562;-56
2023/05/05 09:53:21;;;;;;;;;1.00;1.00;;;;;17.83;58.28;101016.69;4953447;28;45978;-57
2023/05/05 09:55:57;;;;;;;;;3.00;3.00;;;;;17.82;57.87;101007.00;4954631;28;45542;-56
2023/05/05 09:58:27;;;;;;;;;1.00;1.00;;;;;17.80;57.76;101006.22;4944751;28;45484;-55
2023/05/05 10:00:56;;;;;;;;;4.00;2.00;;;;;17.85;58.71;101006.81;4952460;28;45372;-58
2023/05/05 10:03:22;;;;;;;;;2.00;2.00;;;;;17.87;59.05;100996.94;4957282;28;46251;-57
2023/05/05 10:05:49;;;;;;;;;2.67;2.00;;;;;17.91;58.85;100998.47;4954748;28;45740;-64
2023/05/05 10:08:15;;;;;;;;;1.00;1.00;;;;;17.97;58.64;100991.91;4955471;28;45484;-60
2023/05/05 10:11:03;;;;;;;;;2.00;2.00;;;;;18.04;58.78;100987.94;4956417;28;45364;-64
2023/05/05 10:13:28;;;;;;;;;3.00;3.00;;;;;18.10;58.89;100987.56;4955923;28;45514;-59
2023/05/05 10:15:56;;;;;;;;;1.00;1.00;;;;;18.13;57.94;100992.69;4955675;28;45556;-59
2023/05/05 10:18:26;;;;;;;;;0.67;0.67;;;;;18.19;57.17;100992.34;4955758;28;45512;-59
2023/05/05 10:20:57;;;;;;;;;1.33;1.33;;;;;18.21;56.88;100989.56;4943403;28;45399;-57
2023/05/05 10:23:26;;;;;;;;;1.00;1.00;;;;;18.22;56.87;100985.97;4954450;28;47123;-59
2023/05/05 10:26:01;;;;;;;;;1.00;1.00;;;;;18.27;57.27;100973.25;4955512;28;45380;-63
2023/05/05 10:29:00;;;;;;;;;1.00;1.00;;;;;18.31;57.20;100964.94;4949405;28;45385;-63
2023/05/05 10:31:32;;;;;;;;;2.00;2.00;;;;;18.34;56.58;100969.22;4949766;28;45597;-58
2023/05/05 10:34:20;;;;;;;;;1.00;1.00;;;;;18.38;56.11;100975.25;4951068;28;45469;-56
2023/05/05 10:36:47;;;;;;;;;1.33;0.67;;;;;18.42;55.76;100977.59;4946626;28;45630;-58
2023/05/05 10:39:15;;;;;;;;;3.67;2.00;;;;;18.41;55.86;100965.25;4954800;28;45565;-58
2023/05/05 10:41:40;;;;;;;;;1.00;1.00;;;;;18.48;56.68;100971.03;4955064;28;45553;-58
2023/05/05 10:44:09;;;;;;;;;1.33;1.33;;;;;18.53;56.21;100972.44;4955801;28;46150;-58
2023/05/05 10:46:35;;;;;;;;;1.00;1.00;;;;;18.55;55.94;100967.03;4954971;28;45508;-58
2023/05/05 10:49:16;;;;;;;;;2.00;2.00;;;;;18.63;55.63;100969.22;4954140;28;45466;-60
2023/05/05 10:51:59;;;;;;;;;2.00;2.00;;;;;18.65;55.81;100968.19;4944911;28;45381;-61
2023/05/05 10:54:42;;;;;;;;;1.00;1.00;;;;;18.71;56.02;100965.13;4954265;28;45479;-62
2023/05/05 10:57:09;;;;;;;;;3.33;2.33;;;;;18.70;56.06;100958.09;4946359;28;45379;-58
2023/05/05 10:59:35;;;;;;;;;1.00;1.00;;;;;18.73;56.52;100965.88;4954465;28;45613;-58
2023/05/05 11:02:00;;;;;;;;;2.00;1.00;;;;;18.76;56.25;100951.53;4954749;28;45566;-58
2023/05/05 11:04:26;;;;;;;;;3.00;1.00;;;;;18.77;56.21;100956.75;4956223;28;45502;-60
2023/05/05 11:07:09;;;;;;;;;1.00;1.00;;;;;18.84;56.48;100948.41;4959195;28;45383;-58
2023/05/05 11:09:52;;;;;;;;;3.67;2.67;;;;;18.87;56.12;100942.88;4957992;28;45487;-58
2023/05/05 11:12:17;;;;;;;;;2.67;2.67;;;;;18.89;55.47;100935.63;4958651;28;45470;-59
2023/05/05 11:14:43;;;;;;;;;1.00;1.00;;;;;18.93;56.19;100935.31;4958977;28;45443;-54
2023/05/05 11:17:46;;;;;;;;;2.67;2.67;;;;;18.98;55.32;100932.34;4958241;28;45380;-55
2023/05/05 11:20:12;;;;;;;;;2.00;2.00;;;;;19.07;55.14;100925.56;4957070;28;45526;-53
2023/05/05 11:23:03;;;;;;;;;2.00;2.00;;;;;19.13;54.76;100925.19;4957628;28;45356;-56
2023/05/05 11:25:44;;;;;;;;;1.00;1.00;;;;;19.12;54.37;100924.28;4955835;28;45437;-55
2023/05/05 11:28:16;;;;;;;;;0.25;0.25;;;;;19.13;54.46;100928.69;4951280;28;45356;-55
2023/05/05 11:30:54;;;;;;;;;1.00;1.00;;;;;19.13;54.98;100926.03;4954255;28;45485;-55